Time;durP1;ratioP1;P1;durP2;ratioP2;P2;SDS_P1;SDS_P2;PMS_P1;PMS_P2;Temp;Humidity;BMP_temperature;BMP_pressure;BME280_temperature;BME280_humidity;BME280_pressure;Samples;Min_cycle;Max_cycle;Signal;HPM_P1;HPM_P2
2022/01/01 00:02:06;;;;;;;19.42;10.57;;;16.50;74.10;;;;;;5040931;28;20492;-75
2022/01/01 00:04:53;;;;;;;16.88;10.23;;;16.50;74.10;;;;;;5013539;28;20052;-75
2022/01/01 00:07:20;;;;;;;14.60;10.27;;;16.50;74.10;;;;;;5007375;28;20475;-75
2022/01/01 00:09:47;;;;;;;14.68;9.90;;;16.50;74.20;;;;;;5025857;28;20037;-75
2022/01/01 00:12:14;;;;;;;14.77;10.00;;;16.50;74.20;;;;;;5050651;28;20040;-78
2022/01/01 00:14:41;;;;;;;16.00;10.07;;;16.50;74.30;;;;;;5012473;28;20041;-75
2022/01/01 00:17:08;;;;;;;14.45;10.93;;;16.40;74.30;;;;;;5015353;28;20041;-76
2022/01/01 00:19:35;;;;;;;17.88;10.45;;;16.50;74.40;;;;;;5010502;28;20041;-75
2022/01/01 00:22:03;;;;;;;15.95;10.00;;;16.50;74.50;;;;;;5016750;28;20041;-75
2022/01/01 00:24:30;;;;;;;11.90;9.75;;;16.40;74.40;;;;;;5032610;28;20049;-75
2022/01/01 00:26:56;;;;;;;17.95;12.43;;;16.40;74.40;;;;;;5013757;28;20048;-75
2022/01/01 00:29:23;;;;;;;14.38;10.35;;;16.40;74.50;;;;;;5016004;28;20060;-75
2022/01/01 00:31:50;;;;;;;15.32;10.60;;;16.40;74.50;;;;;;5016472;28;20048;-75
2022/01/01 00:34:17;;;;;;;17.67;11.30;;;16.40;74.50;;;;;;5028411;28;20111;-77
2022/01/01 00:36:44;;;;;;;16.83;10.52;;;16.40;74.50;;;;;;5018843;28;20037;-76
2022/01/01 00:39:11;;;;;;;18.92;12.07;;;16.40;74.60;;;;;;5043692;28;20041;-77
2022/01/01 00:41:38;;;;;;;17.55;11.18;;;16.40;74.40;;;;;;5031631;28;20501;-76
2022/01/01 00:44:05;;;;;;;15.10;10.77;;;16.40;74.40;;;;;;5032613;28;20048;-76
2022/01/01 00:46:32;;;;;;;16.70;10.80;;;16.40;74.40;;;;;;5025055;28;20048;-77
2022/01/01 00:48:59;;;;;;;18.65;10.48;;;16.50;74.40;;;;;;5036454;28;20053;-76
2022/01/01 00:51:26;;;;;;;17.13;11.23;;;16.40;74.30;;;;;;5016147;28;20037;-76
2022/01/01 00:53:53;;;;;;;16.73;10.63;;;16.40;74.10;;;;;;5000890;28;20124;-75
2022/01/01 00:56:20;;;;;;;17.65;12.10;;;16.40;74.10;;;;;;5011272;28;20128;-76
2022/01/01 00:58:47;;;;;;;16.23;11.65;;;16.40;74.00;;;;;;5023719;28;20032;-75
2022/01/01 01:01:14;;;;;;;20.25;11.88;;;16.40;73.90;;;;;;5016338;28;20497;-76
2022/01/01 01:03:41;;;;;;;16.52;11.55;;;16.40;73.90;;;;;;5050499;28;20041;-76
2022/01/01 01:06:10;;;;;;;15.88;11.38;;;16.50;73.90;;;;;;5014055;28;20514;-77
2022/01/01 01:08:37;;;;;;;16.05;9.70;;;16.50;73.80;;;;;;5031773;28;20048;-76
2022/01/01 01:11:07;;;;;;;17.80;9.70;;;16.50;73.80;;;;;;5029097;28;20049;-77
2022/01/01 01:13:36;;;;;;;16.85;9.90;;;16.50;73.70;;;;;;5016521;28;20057;-76
2022/01/01 01:16:03;;;;;;;14.38;8.70;;;16.50;73.60;;;;;;5010340;28;20037;-76
2022/01/01 01:18:30;;;;;;;13.73;8.63;;;16.50;73.60;;;;;;5016485;28;20205;-77
2022/01/01 01:20:57;;;;;;;13.27;9.30;;;16.50;73.50;;;;;;5032700;28;20398;-76
2022/01/01 01:23:24;;;;;;;11.82;8.32;;;16.50;73.50;;;;;;4999681;28;20531;-77
2022/01/01 01:25:50;;;;;;;12.43;8.43;;;16.50;73.50;;;;;;5010414;28;20034;-77
2022/01/01 01:28:19;;;;;;;15.82;8.85;;;16.50;73.40;;;;;;5024767;28;20044;-76
2022/01/01 01:30:47;;;;;;;15.02;8.60;;;16.50;73.40;;;;;;5031757;28;20041;-75
2022/01/01 01:33:14;;;;;;;12.75;7.30;;;16.50;73.40;;;;;;5002260;28;20589;-76
2022/01/01 01:35:40;;;;;;;12.43;6.40;;;16.50;73.30;;;;;;5049168;28;20041;-76
2022/01/01 01:38:07;;;;;;;9.70;6.22;;;16.50;73.30;;;;;;5032325;28;20044;-76
2022/01/01 01:40:34;;;;;;;11.82;6.97;;;16.50;73.90;;;;;;4997018;28;20054;-75
2022/01/01 01:43:08;;;;;;;14.57;6.57;;;16.50;73.10;;;;;;5040893;28;20048;-76
2022/01/01 01:45:35;;;;;;;11.48;5.95;;;16.50;73.00;;;;;;5015953;28;20513;-75
2022/01/01 01:48:02;;;;;;;12.00;5.55;;;16.50;72.80;;;;;;5032687;28;20449;-76
2022/01/01 01:50:30;;;;;;;9.10;6.35;;;16.60;72.80;;;;;;4992593;28;20041;-76
2022/01/01 01:52:58;;;;;;;9.55;5.00;;;16.50;72.70;;;;;;4993608;28;20041;-76
2022/01/01 01:55:28;;;;;;;12.18;5.32;;;16.50;72.70;;;;;;5035956;28;20040;-76
2022/01/01 01:57:56;;;;;;;9.10;5.25;;;16.50;72.60;;;;;;5035170;28;20697;-76
2022/01/01 02:03:10;;;;;;;11.73;5.88;;;16.60;72.40;;;;;;5013694;28;20085;-77
2022/01/01 02:05:38;;;;;;;8.15;4.45;;;16.50;72.40;;;;;;5012941;28;20493;-76
2022/01/01 02:08:06;;;;;;;13.10;5.65;;;16.50;72.30;;;;;;4999646;28;20081;-76
2022/01/01 02:10:34;;;;;;;10.45;4.95;;;16.50;72.20;;;;;;5030491;28;20041;-77
2022/01/01 02:13:10;;;;;;;7.68;4.90;;;16.70;72.30;;;;;;5025071;28;20449;-77
2022/01/01 02:18:20;;;;;;;7.45;4.50;;;16.50;72.10;;;;;;5016294;28;20056;-77
2022/01/01 02:20:50;;;;;;;8.75;4.82;;;16.50;72.00;;;;;;5010683;28;20045;-76
2022/01/01 02:23:23;;;;;;;9.90;5.22;;;16.50;71.80;;;;;;5028739;28;20051;-77
2022/01/01 02:25:51;;;;;;;8.18;4.80;;;16.50;71.80;;;;;;4999886;28;20413;-77
2022/01/01 02:28:19;;;;;;;8.77;4.55;;;16.50;71.80;;;;;;5008576;28;20052;-76
2022/01/01 02:30:46;;;;;;;7.50;3.90;;;16.50;71.70;;;;;;4998405;28;20050;-77
2022/01/01 02:33:13;;;;;;;8.98;4.25;;;16.50;71.70;;;;;;5033422;28;20064;-76
2022/01/01 02:35:40;;;;;;;6.68;3.67;;;16.70;71.70;;;;;;5035112;28;20052;-77
2022/01/01 02:38:07;;;;;;;6.60;4.03;;;16.50;71.60;;;;;;5017409;28;20045;-76
2022/01/01 02:40:35;;;;;;;7.65;4.30;;;16.60;71.50;;;;;;5050764;28;20045;-77
2022/01/01 02:43:01;;;;;;;10.27;4.90;;;16.60;71.40;;;;;;5035331;28;20056;-77
2022/01/01 02:45:30;;;;;;;7.75;4.40;;;16.50;71.30;;;;;;5014921;28;20068;-77
2022/01/01 02:47:57;;;;;;;9.20;4.00;;;16.50;71.30;;;;;;5000700;28;20045;-76
2022/01/01 02:50:24;;;;;;;9.60;4.45;;;16.50;71.30;;;;;;5027139;28;20049;-77
2022/01/01 02:52:51;;;;;;;7.05;3.88;;;16.50;71.20;;;;;;5034933;28;20048;-77
2022/01/01 02:55:17;;;;;;;6.57;3.65;;;16.60;71.30;;;;;;5034674;28;20052;-76
2022/01/01 02:57:44;;;;;;;8.05;4.47;;;16.60;71.30;;;;;;5019456;28;20042;-76
2022/01/01 03:00:11;;;;;;;7.28;4.22;;;16.50;71.20;;;;;;5031680;28;20780;-77
2022/01/01 03:02:39;;;;;;;9.15;4.10;;;16.60;71.40;;;;;;5018324;28;20041;-77
2022/01/01 03:05:07;;;;;;;7.60;5.07;;;16.60;71.30;;;;;;5043217;28;20044;-76
2022/01/01 03:07:36;;;;;;;10.07;4.38;;;16.50;71.30;;;;;;5016346;28;20033;-75
2022/01/01 03:10:04;;;;;;;6.57;4.45;;;16.60;71.40;;;;;;5012768;28;20072;-75
2022/01/01 03:12:30;;;;;;;6.47;4.13;;;16.50;71.40;;;;;;5034284;28;20041;-75
2022/01/01 03:14:57;;;;;;;7.00;4.10;;;16.50;71.40;;;;;;5013160;28;20066;-77
2022/01/01 03:17:24;;;;;;;10.00;4.35;;;16.50;71.40;;;;;;5012014;28;20033;-77
2022/01/01 03:19:51;;;;;;;7.68;4.15;;;16.50;71.40;;;;;;5052417;28;20037;-76
2022/01/01 03:22:18;;;;;;;10.75;4.00;;;16.50;71.50;;;;;;5020087;28;20056;-76
2022/01/01 03:24:45;;;;;;;8.20;3.95;;;16.50;71.50;;;;;;5003104;28;20049;-76
2022/01/01 03:27:11;;;;;;;9.88;3.88;;;16.60;71.50;;;;;;5005155;28;20599;-77
2022/01/01 03:29:38;;;;;;;7.57;4.70;;;16.50;71.50;;;;;;5052202;28;20044;-76
2022/01/01 03:32:06;;;;;;;8.50;4.97;;;16.50;71.50;;;;;;5034849;28;20378;-76
2022/01/01 03:34:32;;;;;;;8.82;4.40;;;16.50;71.60;;;;;;5022323;28;20038;-76
2022/01/01 03:36:59;;;;;;;6.95;5.07;;;16.50;71.60;;;;;;5002594;28;20521;-76
2022/01/01 03:39:27;;;;;;;9.10;4.70;;;16.50;71.60;;;;;;5017316;28;20056;-77
2022/01/01 03:41:54;;;;;;;7.05;4.00;;;16.50;71.60;;;;;;5032946;28;20064;-75
2022/01/01 03:44:21;;;;;;;8.23;4.47;;;16.50;71.70;;;;;;4999847;28;20053;-76
2022/01/01 03:46:49;;;;;;;5.65;4.22;;;16.50;71.60;;;;;;5027137;28;20044;-76
2022/01/01 03:49:16;;;;;;;9.35;4.60;;;16.50;71.60;;;;;;5016754;28;20102;-76
2022/01/01 03:51:43;;;;;;;7.10;4.35;;;16.50;71.60;;;;;;5023588;28;20057;-77
2022/01/01 03:54:11;;;;;;;6.88;4.82;;;16.50;71.80;;;;;;5009755;28;20042;-76
2022/01/01 03:56:38;;;;;;;5.80;4.32;;;16.50;71.60;;;;;;5016604;28;20048;-75
2022/01/01 03:59:05;;;;;;;7.68;4.65;;;16.50;71.60;;;;;;5017304;28;20083;-76
2022/01/01 04:01:32;;;;;;;10.48;4.85;;;16.50;71.60;;;;;;5032417;28;20048;-76
2022/01/01 04:03:59;;;;;;;9.50;4.68;;;16.50;71.60;;;;;;5003401;28;20128;-75
2022/01/01 04:06:26;;;;;;;9.95;4.90;;;16.50;71.60;;;;;;5044054;28;20056;-76
2022/01/01 04:08:53;;;;;;;9.40;4.38;;;16.40;71.60;;;;;;4997729;28;20042;-75
2022/01/01 04:11:21;;;;;;;7.80;5.28;;;16.50;71.60;;;;;;5029592;28;20042;-76
2022/01/01 04:13:49;;;;;;;11.20;4.70;;;16.50;71.60;;;;;;4995877;28;20468;-77
2022/01/01 04:16:17;;;;;;;7.30;4.93;;;16.40;71.50;;;;;;5013939;28;20038;-77
2022/01/01 04:18:45;;;;;;;9.50;4.75;;;16.50;71.60;;;;;;5005042;28;20037;-77
2022/01/01 04:21:13;;;;;;;9.60;5.75;;;16.40;71.50;;;;;;5020263;28;20040;-78
2022/01/01 04:23:42;;;;;;;11.15;4.90;;;16.50;71.10;;;;;;5013296;28;20496;-78
2022/01/01 04:26:10;;;;;;;10.43;5.70;;;16.40;71.50;;;;;;5013858;28;20115;-77
2022/01/01 04:28:37;;;;;;;8.25;5.20;;;16.40;71.50;;;;;;4998529;28;20053;-77
2022/01/01 04:31:04;;;;;;;9.38;5.03;;;16.40;71.50;;;;;;5026504;28;20049;-76
2022/01/01 04:33:31;;;;;;;12.90;5.72;;;16.40;71.60;;;;;;5010131;28;20140;-77
2022/01/01 04:35:58;;;;;;;12.48;4.88;;;16.40;71.50;;;;;;5033063;28;20057;-77
2022/01/01 04:38:42;;;;;;;8.25;5.13;;;16.50;71.70;;;;;;5032721;28;20033;-78
2022/01/01 04:41:15;;;;;;;8.32;4.85;;;16.40;71.50;;;;;;5006864;28;20517;-77
2022/01/01 04:43:46;;;;;;;8.93;5.13;;;16.40;71.40;;;;;;5045312;28;20039;-77
2022/01/01 04:46:14;;;;;;;8.70;4.43;;;16.40;71.40;;;;;;5016171;28;20125;-77
2022/01/01 04:48:41;;;;;;;11.32;5.30;;;16.40;71.40;;;;;;5050160;28;20414;-76
2022/01/01 04:51:09;;;;;;;9.35;5.47;;;16.40;71.40;;;;;;5021281;28;20405;-78
2022/01/01 04:53:39;;;;;;;8.23;4.70;;;16.40;71.50;;;;;;5026117;28;20033;-79
2022/01/01 04:56:07;;;;;;;7.25;4.05;;;16.40;71.40;;;;;;5049895;28;20486;-80
2022/01/01 04:58:35;;;;;;;8.38;4.95;;;16.40;71.40;;;;;;5013167;28;20044;-76
2022/01/01 05:01:03;;;;;;;8.05;4.45;;;16.40;71.40;;;;;;5015475;28;20404;-76
2022/01/01 05:03:30;;;;;;;7.35;4.03;;;16.40;71.40;;;;;;5032161;28;20075;-77
2022/01/01 05:05:57;;;;;;;8.52;4.43;;;16.40;71.40;;;;;;5017529;28;20169;-77
2022/01/01 05:08:23;;;;;;;10.70;5.00;;;16.40;71.40;;;;;;5012274;28;20041;-77
2022/01/01 05:10:50;;;;;;;10.27;4.20;;;16.40;71.30;;;;;;5020119;28;20041;-76
2022/01/01 05:13:19;;;;;;;9.20;4.13;;;16.40;71.20;;;;;;5025770;28;20049;-76
2022/01/01 05:15:46;;;;;;;7.18;3.78;;;16.30;71.10;;;;;;5027489;28;20048;-79
2022/01/01 05:18:15;;;;;;;6.60;4.20;;;16.30;71.20;;;;;;5021067;28;20030;-78
2022/01/01 05:20:42;;;;;;;6.95;4.43;;;16.40;71.20;;;;;;5014931;28;20055;-78
2022/01/01 05:23:09;;;;;;;7.70;3.60;;;16.30;71.20;;;;;;5031943;28;20041;-77
2022/01/01 05:25:36;;;;;;;5.68;3.65;;;16.30;71.20;;;;;;5019706;28;20505;-77
2022/01/01 05:28:03;;;;;;;8.23;4.18;;;16.40;71.20;;;;;;5046929;28;20045;-77
2022/01/01 05:30:30;;;;;;;6.32;3.55;;;16.30;71.10;;;;;;5049859;28;20049;-76
2022/01/01 05:33:02;;;;;;;8.07;3.60;;;16.30;71.00;;;;;;5020909;28;20521;-78
2022/01/01 05:35:29;;;;;;;8.73;3.63;;;16.30;70.90;;;;;;5031108;28;20179;-77
2022/01/01 05:37:56;;;;;;;5.63;3.28;;;16.30;71.00;;;;;;5029161;28;20036;-77
2022/01/01 05:40:32;;;;;;;6.65;3.22;;;16.30;70.90;;;;;;5034027;28;20501;-77
2022/01/01 05:42:59;;;;;;;10.05;3.55;;;16.40;71.00;;;;;;5049901;28;20060;-77
2022/01/01 05:45:25;;;;;;;8.23;4.10;;;16.40;71.00;;;;;;5013871;28;20444;-77
2022/01/01 05:47:52;;;;;;;7.53;3.58;;;16.30;70.90;;;;;;5027513;28;20140;-76
2022/01/01 05:50:27;;;;;;;8.60;3.55;;;16.30;70.90;;;;;;5049401;28;20493;-76
2022/01/01 05:52:54;;;;;;;7.25;3.30;;;16.30;71.40;;;;;;5018501;28;20041;-76
2022/01/01 05:55:20;;;;;;;9.15;4.13;;;16.40;70.90;;;;;;5019911;28;20033;-79
2022/01/01 05:57:47;;;;;;;9.05;4.13;;;16.30;70.90;;;;;;5039678;28;20029;-77
2022/01/01 06:00:19;;;;;;;6.60;3.83;;;16.30;70.90;;;;;;5049226;28;20485;-77
2022/01/01 06:02:46;;;;;;;7.78;3.55;;;16.30;70.80;;;;;;5032002;28;20041;-76
2022/01/01 06:05:13;;;;;;;8.73;3.92;;;16.30;70.70;;;;;;5036253;28;20049;-77
2022/01/01 06:07:40;;;;;;;6.68;3.15;;;16.30;70.70;;;;;;5049100;28;20037;-77
2022/01/01 06:10:07;;;;;;;5.55;3.33;;;16.30;70.70;;;;;;5039832;28;20076;-77
2022/01/01 06:12:38;;;;;;;7.20;3.38;;;16.30;70.60;;;;;;5010498;28;20132;-77
2022/01/01 06:15:05;;;;;;;9.18;3.05;;;16.30;70.50;;;;;;5007478;28;20049;-77
2022/01/01 06:17:32;;;;;;;7.32;3.13;;;16.30;70.60;;;;;;5024806;28;20044;-77
2022/01/01 06:19:58;;;;;;;6.20;2.70;;;16.30;70.60;;;;;;5049183;28;20521;-79
2022/01/01 06:22:27;;;;;;;6.07;2.90;;;16.30;70.50;;;;;;5049664;28;20052;-80
2022/01/01 06:24:53;;;;;;;5.22;3.40;;;16.40;70.50;;;;;;5011845;28;20104;-76
2022/01/01 06:27:20;;;;;;;8.98;3.60;;;16.30;70.40;;;;;;5010159;28;20049;-76
2022/01/01 06:29:47;;;;;;;8.15;3.30;;;16.30;70.40;;;;;;5031583;28;20041;-80
2022/01/01 06:32:14;;;;;;;5.22;2.92;;;16.40;70.40;;;;;;5044284;28;20041;-77
2022/01/01 06:34:41;;;;;;;6.57;4.15;;;16.30;70.40;;;;;;5024768;28;20040;-76
2022/01/01 06:37:08;;;;;;;8.98;3.35;;;16.30;70.30;;;;;;5030948;28;20061;-79
2022/01/01 06:39:35;;;;;;;6.10;3.78;;;16.30;70.90;;;;;;5050641;28;20452;-76
2022/01/01 06:42:02;;;;;;;6.60;3.45;;;16.30;70.30;;;;;;5048790;28;20136;-76
2022/01/01 06:44:29;;;;;;;6.90;3.03;;;16.30;70.20;;;;;;5008635;28;20390;-78
2022/01/01 06:46:56;;;;;;;8.38;3.40;;;16.30;70.10;;;;;;5034518;28;20041;-78
2022/01/01 06:49:24;;;;;;;4.68;3.28;;;16.30;70.10;;;;;;5034884;28;20044;-76
2022/01/01 06:51:50;;;;;;;8.60;3.05;;;16.30;70.00;;;;;;5008745;28;20038;-76
2022/01/01 06:54:17;;;;;;;5.95;2.60;;;16.30;70.30;;;;;;5030815;28;20033;-76
2022/01/01 06:56:44;;;;;;;4.97;3.00;;;16.30;69.90;;;;;;5035330;28;20045;-74
2022/01/01 06:59:11;;;;;;;7.80;2.70;;;16.30;69.90;;;;;;5035429;28;20045;-74
2022/01/01 07:01:38;;;;;;;3.45;2.50;;;16.30;70.00;;;;;;5039945;28;20033;-75
2022/01/01 07:04:05;;;;;;;6.07;2.95;;;16.30;69.90;;;;;;5026271;28;20055;-74
2022/01/01 07:06:33;;;;;;;6.00;2.78;;;16.30;69.60;;;;;;5026089;28;20037;-78
2022/01/01 07:09:01;;;;;;;6.07;2.83;;;16.30;69.70;;;;;;5031467;28;20050;-74
2022/01/01 07:11:28;;;;;;;5.13;3.00;;;16.20;69.60;;;;;;5023061;28;20049;-74
2022/01/01 07:13:55;;;;;;;4.90;2.72;;;16.30;69.70;;;;;;5043393;28;20048;-73
2022/01/01 07:16:22;;;;;;;5.47;2.50;;;16.20;69.60;;;;;;5020430;28;20053;-73
2022/01/01 07:18:49;;;;;;;4.65;2.55;;;16.20;69.50;;;;;;5004678;28;20735;-77
2022/01/01 07:21:15;;;;;;;5.80;2.67;;;16.20;69.50;;;;;;5003262;28;20065;-74
2022/01/01 07:23:42;;;;;;;6.93;2.55;;;16.20;69.60;;;;;;5032343;28;20727;-73
2022/01/01 07:26:09;;;;;;;6.22;3.00;;;16.20;69.60;;;;;;5011327;28;20425;-76
2022/01/01 07:28:36;;;;;;;7.63;2.65;;;16.20;69.60;;;;;;5031480;28;20042;-73
2022/01/01 07:31:03;;;;;;;4.70;2.75;;;16.20;69.50;;;;;;4983709;28;20360;-73
2022/01/01 07:33:30;;;;;;;5.32;2.80;;;16.20;69.50;;;;;;5031701;28;20051;-74
2022/01/01 07:35:57;;;;;;;4.32;2.10;;;16.20;69.40;;;;;;5013542;28;20044;-73
2022/01/01 07:38:24;;;;;;;4.07;2.38;;;16.20;69.30;;;;;;5035957;28;20033;-74
2022/01/01 07:40:51;;;;;;;4.15;2.85;;;16.10;69.20;;;;;;5050169;28;20044;-73
2022/01/01 07:43:19;;;;;;;6.60;3.13;;;16.10;69.30;;;;;;5049575;28;20059;-73
2022/01/01 07:45:46;;;;;;;5.78;2.40;;;16.00;69.40;;;;;;5018289;28;20049;-74
2022/01/01 07:48:14;;;;;;;3.97;2.75;;;16.00;69.50;;;;;;5021019;28;20436;-74
2022/01/01 07:50:41;;;;;;;3.75;2.83;;;16.00;69.60;;;;;;5030339;28;20048;-74
2022/01/01 07:53:09;;;;;;;6.68;2.83;;;16.00;69.80;;;;;;5020929;28;20044;-74
2022/01/01 07:55:36;;;;;;;5.88;3.85;;;16.00;69.90;;;;;;4982400;28;20037;-74
2022/01/01 07:58:05;;;;;;;5.25;2.95;;;15.90;70.00;;;;;;5001486;28;20053;-74
2022/01/01 08:00:32;;;;;;;6.70;3.15;;;15.90;70.00;;;;;;5007655;28;20034;-77
2022/01/01 08:02:59;;;;;;;3.72;2.40;;;15.90;70.10;;;;;;5010039;28;20056;-74
2022/01/01 08:05:26;;;;;;;6.35;3.13;;;15.90;70.10;;;;;;5003570;28;20401;-78
2022/01/01 08:07:59;;;;;;;7.00;3.30;;;15.90;70.10;;;;;;4993115;28;20061;-78
2022/01/01 08:10:29;;;;;;;5.20;2.85;;;15.90;70.00;;;;;;5016598;28;20053;-78
2022/01/01 08:12:56;;;;;;;5.82;3.35;;;15.90;70.00;;;;;;4997684;28;20071;-76
2022/01/01 08:15:23;;;;;;;5.32;2.75;;;15.90;70.10;;;;;;4998148;28;20033;-77
2022/01/01 08:17:50;;;;;;;6.55;2.80;;;15.90;70.10;;;;;;5014349;28;20072;-74
2022/01/01 08:20:17;;;;;;;6.75;3.80;;;15.90;70.20;;;;;;5013433;28;20046;-76
2022/01/01 08:22:44;;;;;;;6.28;3.00;;;15.90;70.20;;;;;;5014781;28;20038;-79
2022/01/01 08:25:11;;;;;;;4.47;3.17;;;15.90;70.30;;;;;;4989010;28;20042;-74
2022/01/01 08:27:38;;;;;;;5.38;3.25;;;16.00;70.30;;;;;;5011432;28;20497;-76
2022/01/01 08:30:05;;;;;;;4.07;2.60;;;15.90;70.30;;;;;;5042332;22;20784;-54
2022/01/01 08:32:32;;;;;;;8.15;4.07;;;15.90;70.20;;;;;;5025518;28;20029;-54
2022/01/01 08:34:59;;;;;;;6.35;2.67;;;15.80;70.20;;;;;;5014330;28;20081;-53
2022/01/01 08:37:26;;;;;;;5.50;2.65;;;15.80;70.30;;;;;;5016296;28;20056;-53
2022/01/01 08:39:52;;;;;;;4.70;2.90;;;15.80;70.30;;;;;;5013359;28;20416;-54
2022/01/01 08:42:19;;;;;;;6.53;2.90;;;15.80;70.40;;;;;;5023266;28;20119;-56
2022/01/01 08:44:46;;;;;;;4.68;2.67;;;15.90;70.50;;;;;;5012986;28;20119;-56
2022/01/01 08:47:13;;;;;;;6.13;2.72;;;15.90;70.60;;;;;;5025994;28;20052;-56
2022/01/01 08:49:39;;;;;;;3.88;2.40;;;15.90;70.60;;;;;;5021547;28;20711;-55
2022/01/01 08:52:11;;;;;;;3.15;2.35;;;15.90;70.60;;;;;;5023245;28;20102;-53
2022/01/01 08:54:38;;;;;;;5.47;2.43;;;16.00;70.50;;;;;;5016458;28;20042;-53
2022/01/01 08:57:04;;;;;;;5.30;2.63;;;16.00;70.40;;;;;;5016675;28;20038;-53
2022/01/01 08:59:36;;;;;;;5.20;3.08;;;16.00;70.30;;;;;;5005757;28;20184;-53
2022/01/01 09:02:03;;;;;;;4.20;2.53;;;16.00;70.10;;;;;;5024515;28;20045;-54
2022/01/01 09:04:30;;;;;;;4.50;2.47;;;16.00;69.90;;;;;;5018959;28;20260;-53
2022/01/01 09:06:56;;;;;;;3.47;2.30;;;16.00;69.90;;;;;;5017814;28;20560;-53
2022/01/01 09:09:23;;;;;;;5.38;3.47;;;16.10;69.90;;;;;;5021412;28;20524;-53
2022/01/01 09:11:53;;;;;;;5.65;2.90;;;16.10;69.90;;;;;;5016821;28;20057;-53
2022/01/01 09:14:20;;;;;;;7.57;2.60;;;16.10;69.90;;;;;;5023192;28;20091;-55
2022/01/01 09:16:47;;;;;;;4.38;2.90;;;16.10;70.00;;;;;;5015449;28;20030;-54
2022/01/01 09:19:14;;;;;;;5.70;2.90;;;16.10;69.90;;;;;;5024917;28;20063;-55
2022/01/01 09:21:41;;;;;;;5.70;3.15;;;16.10;69.80;;;;;;5014582;28;20083;-53
2022/01/01 09:24:07;;;;;;;5.40;2.78;;;16.10;69.70;;;;;;5022466;28;20049;-55
2022/01/01 09:26:34;;;;;;;7.53;2.83;;;16.20;69.80;;;;;;5012459;28;20094;-54
2022/01/01 09:29:01;;;;;;;7.07;2.40;;;16.30;69.80;;;;;;5025826;28;20448;-53
2022/01/01 09:31:28;;;;;;;3.30;2.38;;;16.30;69.60;;;;;;5020836;28;20052;-53
2022/01/01 09:33:55;;;;;;;3.28;2.58;;;16.20;69.60;;;;;;5026048;28;20148;-51
2022/01/01 09:36:21;;;;;;;5.55;2.72;;;16.20;69.50;;;;;;5014372;28;20390;-52
2022/01/01 09:38:48;;;;;;;2.90;2.13;;;16.20;69.60;;;;;;5022412;28;20103;-53
2022/01/01 09:41:15;;;;;;;5.75;2.08;;;16.30;69.50;;;;;;5018671;28;20083;-54
2022/01/01 09:43:42;;;;;;;3.53;1.95;;;16.30;69.50;;;;;;5028825;28;20057;-53
2022/01/01 09:46:13;;;;;;;3.72;2.10;;;16.30;69.50;;;;;;5015121;28;20073;-52
2022/01/01 09:48:40;;;;;;;4.83;2.13;;;16.40;69.40;;;;;;5027570;28;20045;-54
2022/01/01 09:51:08;;;;;;;3.92;2.03;;;16.40;69.40;;;;;;5018460;28;20073;-54
2022/01/01 09:53:35;;;;;;;3.33;1.80;;;16.40;69.20;;;;;;5011564;28;20572;-53
2022/01/01 09:56:03;;;;;;;3.45;1.75;;;16.50;69.10;;;;;;5015625;28;20045;-52
2022/01/01 09:58:33;;;;;;;3.45;2.35;;;16.50;69.00;;;;;;5020407;28;20061;-53
2022/01/01 10:01:02;;;;;;;3.38;1.98;;;16.50;69.00;;;;;;5014159;28;20072;-52
2022/01/01 10:03:36;;;;;;;3.45;1.80;;;16.60;68.90;;;;;;5020473;28;20041;-52
2022/01/01 10:06:08;;;;;;;3.25;1.73;;;16.60;68.80;;;;;;5009807;28;20048;-52
2022/01/01 10:08:45;;;;;;;3.63;1.90;;;16.70;68.80;;;;;;5020632;28;20049;-53
2022/01/01 10:11:17;;;;;;;2.20;1.60;;;16.70;68.50;;;;;;5017650;28;20409;-53
2022/01/01 10:13:44;;;;;;;5.18;2.08;;;16.70;68.50;;;;;;5009239;28;20502;-50
2022/01/01 10:16:14;;;;;;;4.43;2.28;;;16.70;68.60;;;;;;5018195;28;20041;-53
2022/01/01 10:18:43;;;;;;;4.00;2.00;;;16.80;68.60;;;;;;5025309;28;20030;-53
2022/01/01 10:21:16;;;;;;;2.40;1.70;;;16.80;68.40;;;;;;5019372;28;20068;-54
2022/01/01 10:23:46;;;;;;;4.47;2.03;;;16.80;68.00;;;;;;5020035;28;20099;-54
2022/01/01 10:29:37;;;;;;;4.47;1.60;;;16.90;67.80;;;;;;5028380;28;20041;-54
2022/01/01 10:32:07;;;;;;;;;;;16.90;67.60;;;;;;5025311;28;20680;-53
2022/01/01 10:34:37;;;;;;;;;;;17.00;68.10;;;;;;5025488;28;19925;-54
2022/01/01 10:37:28;;;;;;;3.90;1.35;;;17.00;68.10;;;;;;5021220;28;19974;-50
2022/01/01 10:39:55;;;;;;;3.45;1.75;;;17.00;67.70;;;;;;5022135;28;20049;-54
2022/01/01 10:42:23;;;;;;;3.25;1.80;;;17.00;67.90;;;;;;5010225;28;20053;-53
2022/01/01 10:44:52;;;;;;;3.35;1.80;;;17.00;68.00;;;;;;5011296;28;20034;-55
2022/01/01 10:47:27;;;;;;;5.40;1.98;;;17.10;68.00;;;;;;5022926;28;20056;-53
2022/01/01 10:52:46;;;;;;;2.78;1.75;;;17.00;68.00;;;;;;5007625;28;20088;-53
2022/01/01 10:55:15;;;;;;;2.08;1.27;;;17.00;67.90;;;;;;5019630;28;20073;-53
2022/01/01 10:57:53;;;;;;;3.20;1.15;;;17.00;67.90;;;;;;5024044;28;20086;-53
2022/01/01 11:00:23;;;;;;;3.72;1.40;;;17.10;67.60;;;;;;5021181;28;20046;-52
2022/01/01 11:02:55;;;;;;;1.98;1.50;;;17.10;67.90;;;;;;5026851;28;20049;-52
2022/01/01 11:05:41;;;;;;;3.53;1.25;;;17.10;67.70;;;;;;5015310;28;20069;-53
2022/01/01 11:08:09;;;;;;;2.95;1.63;;;17.20;68.10;;;;;;5025081;28;20049;-57
2022/01/01 11:10:37;;;;;;;2.40;1.83;;;17.20;67.60;;;;;;5020971;28;20098;-56
2022/01/01 11:13:05;;;;;;;4.10;1.77;;;17.30;67.60;;;;;;5023545;28;20041;-54
2022/01/01 11:15:32;;;;;;;2.72;1.50;;;17.30;67.60;;;;;;5017237;28;20092;-53
2022/01/01 11:18:05;;;;;;;6.28;1.75;;;17.30;67.60;;;;;;5027694;28;20065;-53
2022/01/01 11:20:34;;;;;;;3.85;1.85;;;17.30;67.50;;;;;;5022086;28;20045;-53
2022/01/01 11:23:06;;;;;;;1.88;1.70;;;17.40;67.50;;;;;;5025236;28;20045;-53
2022/01/01 11:25:34;;;;;;;1.98;1.58;;;17.40;67.30;;;;;;5015309;28;20504;-52
2022/01/01 11:28:03;;;;;;;3.65;1.45;;;17.40;67.30;;;;;;5024862;28;20049;-53
2022/01/01 11:30:30;;;;;;;2.08;1.30;;;17.50;67.20;;;;;;5023093;28;20068;-50
2022/01/01 11:33:08;;;;;;;2.30;1.35;;;17.50;67.40;;;;;;5030694;28;20088;-54
2022/01/01 11:35:41;;;;;;;4.00;1.40;;;17.50;66.90;;;;;;5026081;28;20099;-51
2022/01/01 11:38:11;;;;;;;;;;;17.60;67.10;;;;;;5027198;28;20087;-53
2022/01/01 11:40:55;;;;;;;6.90;2.90;;;17.70;67.30;;;;;;5022868;28;19926;-50
2022/01/01 11:43:47;;;;;;;2.33;1.45;;;17.70;66.60;;;;;;5028229;28;20048;-52
2022/01/01 11:46:22;;;;;;;2.40;1.20;;;17.80;66.50;;;;;;5028632;28;20041;-53
2022/01/01 11:49:00;;;;;;;2.78;1.42;;;17.80;66.60;;;;;;5030094;28;20137;-53
2022/01/01 11:51:32;;;;;;;;;;;17.80;66.40;;;;;;5019339;28;20409;-52
2022/01/01 11:54:05;;;;;;;2.75;1.48;;;17.90;67.00;;;;;;5008172;28;19925;-52
2022/01/01 11:56:50;;;;;;;1.75;1.10;;;18.00;66.20;;;;;;5030474;28;20048;-52
2022/01/01 11:59:20;;;;;;;5.32;2.00;;;18.00;66.00;;;;;;5014071;28;20049;-50
2022/01/01 12:01:51;;;;;;;2.58;1.23;;;18.00;66.10;;;;;;5028127;28;20041;-53
2022/01/01 12:04:31;;;;;;;4.00;1.42;;;18.00;66.30;;;;;;5029528;28;20120;-53
2022/01/01 12:06:59;;;;;;;2.38;1.30;;;18.00;65.80;;;;;;5030162;28;20727;-50
2022/01/01 12:09:26;;;;;;;3.80;1.40;;;18.10;66.10;;;;;;5030073;28;20460;-52
2022/01/01 12:11:57;;;;;;;2.08;1.88;;;18.10;66.10;;;;;;5029127;28;20103;-53
2022/01/01 12:14:28;;;;;;;2.80;1.30;;;18.10;65.90;;;;;;5030907;28;20049;-51
2022/01/01 12:16:56;;;;;;;3.55;1.27;;;18.10;66.00;;;;;;5011607;28;20111;-53
2022/01/01 12:19:24;;;;;;;3.63;1.52;;;18.10;65.90;;;;;;5012394;28;20092;-50
2022/01/01 12:22:10;;;;;;;1.98;0.77;;;18.20;65.70;;;;;;5026747;28;20037;-50
2022/01/01 12:24:41;;;;;;;2.45;1.42;;;18.20;65.30;;;;;;5025853;28;20037;-52
2022/01/01 12:27:13;;;;;;;2.05;1.20;;;18.30;65.80;;;;;;5031950;28;20099;-53
2022/01/01 12:29:41;;;;;;;3.75;1.25;;;18.30;65.70;;;;;;5024938;28;20127;-52
2022/01/01 12:32:08;;;;;;;2.42;1.00;;;18.30;65.70;;;;;;5030385;28;20064;-50
2022/01/01 12:34:36;;;;;;;2.10;1.20;;;18.40;65.80;;;;;;5022715;28;20095;-51
2022/01/01 12:37:07;;;;;;;1.55;0.82;;;18.40;65.50;;;;;;5019822;28;20099;-53
2022/01/01 12:40:05;;;;;;;2.83;1.25;;;18.50;65.40;;;;;;4995005;28;20043;-52
2022/01/01 12:42:33;;;;;;;3.38;1.05;;;18.50;64.90;;;;;;5002767;28;20053;-53
2022/01/01 12:45:07;;;;;;;1.85;0.90;;;18.50;65.20;;;;;;5018173;28;20069;-51
2022/01/01 12:47:34;;;;;;;1.42;1.08;;;18.50;64.90;;;;;;5016902;28;20064;-53
2022/01/01 12:50:05;;;;;;;0.98;0.90;;;18.60;65.40;;;;;;5016070;28;20065;-54
2022/01/01 12:52:32;;;;;;;1.77;0.95;;;18.60;65.30;;;;;;5021455;28;20037;-53
2022/01/01 12:54:59;;;;;;;3.00;0.80;;;18.70;65.20;;;;;;5017680;28;20099;-54
2022/01/01 12:57:32;;;;;;;;;;;18.70;65.10;;;;;;5025983;28;20408;-54
2022/01/01 13:00:22;;;;;;;1.10;0.70;;;18.70;65.30;;;;;;5020078;28;20308;-53
2022/01/01 13:02:57;;;;;;;1.33;0.95;;;18.80;64.40;;;;;;5019762;28;20061;-53
2022/01/01 13:05:25;;;;;;;1.00;0.80;;;18.80;64.60;;;;;;5016956;28;20653;-53